Time;durP1;ratioP1;P1;durP2;ratioP2;P2;SDS_P1;SDS_P2;PMS_P1;PMS_P2;Temp;Humidity;BMP_temperature;BMP_pressure;BME280_temperature;BME280_humidity;BME280_pressure;Samples;Min_cycle;Max_cycle;Signal;HPM_P1;HPM_P2
2023/12/27 00:00:40;;;;;;;4.40;4.00;;;;;;;;;;5046935;28;20284;-82
2023/12/27 00:03:08;;;;;;;5.70;3.20;;;;;;;;;;5037305;28;20199;-82
2023/12/27 00:05:35;;;;;;;4.00;3.60;;;;;;;;;;5051403;28;20712;-82
2023/12/27 00:08:02;;;;;;;5.03;3.57;;;;;;;;;;5041627;28;20203;-82
2023/12/27 00:10:30;;;;;;;5.33;3.87;;;;;;;;;;5049545;28;20233;-82
2023/12/27 00:12:57;;;;;;;6.07;4.10;;;;;;;;;;5053843;28;20698;-82
2023/12/27 00:15:24;;;;;;;7.80;4.60;;;;;;;;;;5038706;28;20238;-82
2023/12/27 00:17:51;;;;;;;5.93;3.83;;;;;;;;;;5034546;28;20712;-82
2023/12/27 00:20:18;;;;;;;4.03;3.60;;;;;;;;;;5034354;28;20234;-82
2023/12/27 00:22:45;;;;;;;4.80;3.60;;;;;;;;;;5036672;28;20207;-82
2023/12/27 00:25:12;;;;;;;5.40;4.20;;;;;;;;;;5046442;28;20218;-82
2023/12/27 00:27:41;;;;;;;5.37;3.67;;;;;;;;;;5054704;28;20258;-83
2023/12/27 00:30:08;;;;;;;3.90;3.53;;;;;;;;;;5042269;28;20222;-82
2023/12/27 00:32:34;;;;;;;4.47;3.70;;;;;;;;;;5034878;28;20203;-82
2023/12/27 00:35:01;;;;;;;6.37;4.40;;;;;;;;;;5034908;28;20199;-82
2023/12/27 00:37:28;;;;;;;6.03;4.60;;;;;;;;;;5034613;28;20280;-82
2023/12/27 00:39:56;;;;;;;4.43;4.03;;;;;;;;;;5045207;28;20233;-82
2023/12/27 00:42:23;;;;;;;4.70;4.20;;;;;;;;;;5051450;28;20602;-82
2023/12/27 00:44:52;;;;;;;5.03;4.30;;;;;;;;;;5034324;28;20226;-82
2023/12/27 00:47:19;;;;;;;4.90;4.10;;;;;;;;;;5034276;28;20313;-82
2023/12/27 00:49:46;;;;;;;3.80;3.50;;;;;;;;;;5031684;28;20280;-82
2023/12/27 00:52:13;;;;;;;6.53;3.87;;;;;;;;;;5042120;28;20256;-82
2023/12/27 00:54:40;;;;;;;3.87;3.37;;;;;;;;;;5053321;28;20194;-82
2023/12/27 00:57:07;;;;;;;6.30;4.13;;;;;;;;;;5053334;28;20259;-82
2023/12/27 00:59:34;;;;;;;6.63;4.40;;;;;;;;;;5042122;28;20291;-82
2023/12/27 01:02:03;;;;;;;5.80;4.40;;;;;;;;;;5036358;28;20242;-82
2023/12/27 01:04:30;;;;;;;6.33;4.03;;;;;;;;;;5052763;28;20229;-82
2023/12/27 01:06:57;;;;;;;7.30;3.80;;;;;;;;;;5048195;28;20288;-82
2023/12/27 01:09:24;;;;;;;7.80;4.47;;;;;;;;;;5043899;28;20214;-82
2023/12/27 01:11:51;;;;;;;5.33;4.57;;;;;;;;;;5053481;28;20644;-82
2023/12/27 01:14:19;;;;;;;4.83;3.57;;;;;;;;;;5036771;28;20268;-82
2023/12/27 01:16:46;;;;;;;5.10;4.60;;;;;;;;;;5033172;28;20238;-82
2023/12/27 01:19:14;;;;;;;9.13;4.30;;;;;;;;;;5033670;28;20264;-83
2023/12/27 01:21:41;;;;;;;6.33;4.13;;;;;;;;;;5036594;28;20226;-82
2023/12/27 01:24:08;;;;;;;5.63;4.17;;;;;;;;;;5045648;28;20276;-83
2023/12/27 01:26:35;;;;;;;6.33;4.37;;;;;;;;;;5032839;28;20238;-82
2023/12/27 01:29:02;;;;;;;5.30;4.40;;;;;;;;;;5047686;28;20284;-82
2023/12/27 01:31:29;;;;;;;10.00;4.93;;;;;;;;;;5053088;28;20716;-82
2023/12/27 01:33:56;;;;;;;6.33;4.43;;;;;;;;;;5041903;28;20207;-82
2023/12/27 01:36:25;;;;;;;6.40;4.60;;;;;;;;;;5052706;28;20233;-83
2023/12/27 01:38:52;;;;;;;6.50;4.80;;;;;;;;;;5042631;28;20661;-82
2023/12/27 01:41:19;;;;;;;5.93;4.67;;;;;;;;;;5033096;28;20265;-82
2023/12/27 01:43:46;;;;;;;9.03;4.63;;;;;;;;;;5033068;28;20203;-82
2023/12/27 01:46:13;;;;;;;6.20;4.13;;;;;;;;;;5032943;28;20288;-83
2023/12/27 01:48:42;;;;;;;5.00;4.53;;;;;;;;;;5033335;28;20231;-82
2023/12/27 01:51:09;;;;;;;11.50;4.97;;;;;;;;;;5032996;28;20600;-82
2023/12/27 01:53:37;;;;;;;7.60;4.63;;;;;;;;;;5050157;28;20212;-82
2023/12/27 01:56:04;;;;;;;8.00;5.10;;;;;;;;;;5042965;28;20234;-82
2023/12/27 01:58:32;;;;;;;7.53;4.43;;;;;;;;;;5032900;28;20637;-82
2023/12/27 02:00:59;;;;;;;6.77;4.70;;;;;;;;;;5052076;28;20295;-82
2023/12/27 02:03:26;;;;;;;7.13;5.00;;;;;;;;;;5052004;28;20736;-82
2023/12/27 02:05:56;;;;;;;6.30;4.87;;;;;;;;;;5052213;28;20237;-82
2023/12/27 02:08:23;;;;;;;6.00;5.10;;;;;;;;;;5044428;28;20876;-82
2023/12/27 02:10:51;;;;;;;7.13;4.77;;;;;;;;;;5052029;28;20229;-82
2023/12/27 02:13:19;;;;;;;6.07;4.63;;;;;;;;;;5043290;28;20210;-82
2023/12/27 02:15:47;;;;;;;9.20;5.33;;;;;;;;;;5032803;28;20280;-82
2023/12/27 02:18:14;;;;;;;5.17;4.67;;;;;;;;;;5032550;28;20677;-82
2023/12/27 02:20:41;;;;;;;5.07;4.57;;;;;;;;;;5048665;28;20229;-83
2023/12/27 02:23:09;;;;;;;5.67;5.00;;;;;;;;;;5052337;28;20256;-82
2023/12/27 02:25:38;;;;;;;8.03;5.60;;;;;;;;;;5051258;28;20237;-82
2023/12/27 02:28:05;;;;;;;7.00;5.20;;;;;;;;;;5031745;28;20211;-83
2023/12/27 02:30:36;;;;;;;8.60;5.83;;;;;;;;;;5049512;28;20230;-83
2023/12/27 02:33:03;;;;;;;10.90;6.07;;;;;;;;;;5050927;28;20202;-82
2023/12/27 02:35:30;;;;;;;8.70;5.20;;;;;;;;;;5051728;28;20321;-82
2023/12/27 02:37:57;;;;;;;6.90;5.37;;;;;;;;;;5052087;28;20759;-82
2023/12/27 02:40:24;;;;;;;10.17;5.97;;;;;;;;;;5040961;28;20665;-82
2023/12/27 02:42:53;;;;;;;6.03;5.00;;;;;;;;;;5046057;28;20206;-82
2023/12/27 02:45:20;;;;;;;7.03;5.13;;;;;;;;;;5049989;28;20716;-82
2023/12/27 02:47:47;;;;;;;7.03;5.03;;;;;;;;;;5032211;28;20206;-82
2023/12/27 02:50:14;;;;;;;7.70;5.13;;;;;;;;;;5031730;28;20230;-82
2023/12/27 02:52:41;;;;;;;7.80;5.53;;;;;;;;;;5034320;28;20202;-83
2023/12/27 02:55:08;;;;;;;8.13;5.90;;;;;;;;;;5043955;28;20267;-82
2023/12/27 02:57:35;;;;;;;9.03;5.90;;;;;;;;;;5035995;28;20207;-83
2023/12/27 03:00:04;;;;;;;6.27;4.97;;;;;;;;;;5050113;28;20226;-82
2023/12/27 03:02:31;;;;;;;7.07;4.97;;;;;;;;;;5037799;28;20206;-82
2023/12/27 03:04:58;;;;;;;8.10;6.13;;;;;;;;;;5036480;28;20283;-82
2023/12/27 03:07:25;;;;;;;5.40;4.87;;;;;;;;;;5043237;28;20226;-82
2023/12/27 03:09:52;;;;;;;7.13;5.30;;;;;;;;;;5032911;28;20225;-83
2023/12/27 03:12:19;;;;;;;7.87;5.10;;;;;;;;;;5041451;28;20231;-82
2023/12/27 03:14:46;;;;;;;8.03;5.33;;;;;;;;;;5051429;28;20256;-82
2023/12/27 03:17:14;;;;;;;6.40;5.23;;;;;;;;;;5044221;28;20253;-82
2023/12/27 03:19:41;;;;;;;9.23;5.27;;;;;;;;;;5031659;28;20284;-82
2023/12/27 03:22:08;;;;;;;7.90;5.97;;;;;;;;;;5036185;28;20258;-82
2023/12/27 03:24:35;;;;;;;6.43;5.17;;;;;;;;;;5031593;28;20287;-80
2023/12/27 03:27:02;;;;;;;6.03;5.03;;;;;;;;;;5034412;28;20229;-80
2023/12/27 03:29:29;;;;;;;8.37;5.47;;;;;;;;;;5043294;28;20287;-81
2023/12/27 03:31:56;;;;;;;7.30;5.30;;;;;;;;;;5041152;28;20237;-81
2023/12/27 03:34:24;;;;;;;6.47;5.10;;;;;;;;;;5051579;28;20202;-82
2023/12/27 03:36:51;;;;;;;6.83;5.37;;;;;;;;;;5051062;28;20790;-81
2023/12/27 03:39:19;;;;;;;7.10;4.93;;;;;;;;;;5049945;28;20307;-82
2023/12/27 03:41:46;;;;;;;6.10;5.07;;;;;;;;;;5038221;28;20280;-81
2023/12/27 03:44:12;;;;;;;6.17;5.53;;;;;;;;;;5055338;28;20234;-81
2023/12/27 03:46:39;;;;;;;5.47;4.93;;;;;;;;;;5038432;28;20645;-81
2023/12/27 03:49:07;;;;;;;6.90;5.13;;;;;;;;;;5051693;28;20226;-81
2023/12/27 03:51:35;;;;;;;5.63;5.13;;;;;;;;;;5054975;28;20245;-81
2023/12/27 03:54:02;;;;;;;5.33;4.63;;;;;;;;;;5047165;28;20280;-81
2023/12/27 03:56:29;;;;;;;6.33;4.73;;;;;;;;;;5045762;28;20313;-82
2023/12/27 03:58:56;;;;;;;6.10;4.40;;;;;;;;;;5050561;28;20226;-81
2023/12/27 04:01:23;;;;;;;5.30;4.37;;;;;;;;;;5034991;28;20243;-81
2023/12/27 04:03:49;;;;;;;5.40;4.73;;;;;;;;;;5035100;28;20313;-81
2023/12/27 04:06:19;;;;;;;5.40;4.80;;;;;;;;;;5034682;28;20292;-81
2023/12/27 04:08:48;;;;;;;6.70;4.67;;;;;;;;;;5041282;28;20258;-82
2023/12/27 04:11:15;;;;;;;10.03;5.87;;;;;;;;;;5034658;28;20235;-81
2023/12/27 04:13:42;;;;;;;6.63;5.20;;;;;;;;;;5035480;28;20211;-81
2023/12/27 04:16:09;;;;;;;6.87;6.17;;;;;;;;;;5054515;28;20237;-82
2023/12/27 04:18:36;;;;;;;5.90;4.67;;;;;;;;;;5054847;28;20230;-81
2023/12/27 04:21:03;;;;;;;7.57;5.57;;;;;;;;;;5054469;28;20731;-82
2023/12/27 04:23:30;;;;;;;6.57;5.80;;;;;;;;;;5053984;28;20669;-81
2023/12/27 04:25:58;;;;;;;8.60;5.03;;;;;;;;;;5054320;28;20242;-81
2023/12/27 04:28:25;;;;;;;6.57;5.47;;;;;;;;;;5054831;28;20627;-82
2023/12/27 04:30:52;;;;;;;7.70;5.93;;;;;;;;;;5040848;28;20288;-81
2023/12/27 04:33:19;;;;;;;7.13;5.53;;;;;;;;;;5051890;28;20234;-81
2023/12/27 04:35:46;;;;;;;7.03;5.07;;;;;;;;;;5054076;28;20639;-81
2023/12/27 04:38:13;;;;;;;9.83;6.30;;;;;;;;;;5054477;28;20210;-82
2023/12/27 04:40:41;;;;;;;7.93;5.00;;;;;;;;;;5053935;28;20238;-81
2023/12/27 04:43:09;;;;;;;7.93;5.27;;;;;;;;;;5054407;28;20206;-81
2023/12/27 04:45:36;;;;;;;7.47;5.07;;;;;;;;;;5054044;28;20296;-82
2023/12/27 04:48:02;;;;;;;8.07;5.77;;;;;;;;;;5049457;28;20207;-82
2023/12/27 04:50:29;;;;;;;7.20;5.13;;;;;;;;;;5034407;28;20230;-83
2023/12/27 04:52:56;;;;;;;5.20;4.73;;;;;;;;;;5033488;28;20222;-82
2023/12/27 04:55:23;;;;;;;9.10;5.00;;;;;;;;;;5033697;28;20230;-82
2023/12/27 04:57:50;;;;;;;8.57;6.10;;;;;;;;;;5047261;28;20214;-82
2023/12/27 05:00:19;;;;;;;5.93;5.03;;;;;;;;;;5033640;28;20604;-82
2023/12/27 05:02:46;;;;;;;8.70;5.67;;;;;;;;;;5034320;28;20211;-82
2023/12/27 05:05:13;;;;;;;9.27;6.00;;;;;;;;;;5036586;28;20268;-81
2023/12/27 05:07:40;;;;;;;6.57;5.37;;;;;;;;;;5038441;28;20257;-81
2023/12/27 05:10:08;;;;;;;8.13;5.67;;;;;;;;;;5033337;28;20227;-81
2023/12/27 05:12:35;;;;;;;10.20;5.80;;;;;;;;;;5038735;28;20737;-82
2023/12/27 05:15:03;;;;;;;6.67;5.10;;;;;;;;;;5053536;28;20212;-81
2023/12/27 05:17:31;;;;;;;5.43;4.90;;;;;;;;;;5048131;28;20313;-81
2023/12/27 05:19:58;;;;;;;6.23;5.00;;;;;;;;;;5053428;28;20451;-81
2023/12/27 05:22:27;;;;;;;6.90;5.60;;;;;;;;;;5053242;28;20230;-82
2023/12/27 05:24:54;;;;;;;10.23;5.77;;;;;;;;;;5055046;28;20206;-81
2023/12/27 05:27:21;;;;;;;7.73;5.47;;;;;;;;;;5053000;28;20229;-81
2023/12/27 05:29:48;;;;;;;6.97;5.23;;;;;;;;;;5053564;28;20276;-81
2023/12/27 05:32:16;;;;;;;6.30;5.70;;;;;;;;;;5052868;28;20785;-81
2023/12/27 05:34:45;;;;;;;12.33;6.67;;;;;;;;;;5053455;28;20194;-81
2023/12/27 05:37:12;;;;;;;8.47;5.53;;;;;;;;;;5052788;28;20295;-81
2023/12/27 05:39:39;;;;;;;8.37;5.67;;;;;;;;;;5048061;28;20226;-81
2023/12/27 05:42:06;;;;;;;7.53;5.23;;;;;;;;;;5043468;28;20237;-82
2023/12/27 05:44:33;;;;;;;6.10;5.50;;;;;;;;;;5040079;28;20199;-82
2023/12/27 05:47:01;;;;;;;8.63;5.63;;;;;;;;;;5032416;28;20716;-85
2023/12/27 05:49:28;;;;;;;6.80;5.77;;;;;;;;;;5033164;28;20234;-84
2023/12/27 05:51:57;;;;;;;5.87;5.13;;;;;;;;;;5032512;28;20230;-82
2023/12/27 05:54:26;;;;;;;9.33;6.03;;;;;;;;;;5046479;28;20202;-82
2023/12/27 05:56:53;;;;;;;10.10;5.87;;;;;;;;;;5052396;28;20241;-82
2023/12/27 05:59:20;;;;;;;10.07;4.73;;;;;;;;;;5052626;28;20767;-82
2023/12/27 06:01:48;;;;;;;6.10;5.17;;;;;;;;;;5052513;28;20291;-82
2023/12/27 06:04:15;;;;;;;9.93;5.73;;;;;;;;;;5051912;28;20289;-82
2023/12/27 06:06:43;;;;;;;7.23;4.93;;;;;;;;;;5052096;28;20594;-82
2023/12/27 06:09:12;;;;;;;7.97;5.77;;;;;;;;;;5052456;28;20226;-82
2023/12/27 06:11:39;;;;;;;9.67;5.83;;;;;;;;;;5052128;28;20242;-82
2023/12/27 06:14:06;;;;;;;6.90;5.73;;;;;;;;;;5052073;28;20210;-81
2023/12/27 06:16:33;;;;;;;6.40;4.87;;;;;;;;;;5051947;28;20648;-81
2023/12/27 06:19:01;;;;;;;9.73;5.53;;;;;;;;;;5052175;28;20226;-81
2023/12/27 06:21:28;;;;;;;6.07;5.30;;;;;;;;;;5052062;28;20782;-81
2023/12/27 06:23:55;;;;;;;9.47;5.53;;;;;;;;;;5052056;28;20734;-81
2023/12/27 06:26:24;;;;;;;7.87;5.40;;;;;;;;;;5051665;28;20233;-81
2023/12/27 06:28:51;;;;;;;6.43;5.10;;;;;;;;;;5051986;28;20712;-81
2023/12/27 06:31:18;;;;;;;9.47;5.23;;;;;;;;;;5051813;28;20229;-81
2023/12/27 06:33:45;;;;;;;7.30;5.17;;;;;;;;;;5052035;28;20259;-81
2023/12/27 06:36:12;;;;;;;6.27;5.67;;;;;;;;;;5051809;28;20592;-81
2023/12/27 06:38:40;;;;;;;9.17;5.80;;;;;;;;;;5051921;28;20321;-81
2023/12/27 06:41:07;;;;;;;8.90;5.70;;;;;;;;;;5051733;28;20245;-81
2023/12/27 06:43:35;;;;;;;8.60;6.73;;;;;;;;;;5051965;28;20275;-81
2023/12/27 06:46:03;;;;;;;7.30;6.10;;;;;;;;;;5051382;28;20646;-81
2023/12/27 06:48:30;;;;;;;6.07;5.40;;;;;;;;;;5051901;28;20230;-81
2023/12/27 06:50:57;;;;;;;10.20;6.27;;;;;;;;;;5051351;28;20234;-81
2023/12/27 06:53:24;;;;;;;10.13;6.67;;;;;;;;;;5051734;28;20201;-82
2023/12/27 06:55:51;;;;;;;19.10;7.33;;;;;;;;;;5051191;28;20241;-81
2023/12/27 06:58:18;;;;;;;10.23;7.03;;;;;;;;;;5051609;28;20267;-81
2023/12/27 07:00:47;;;;;;;8.73;6.67;;;;;;;;;;5051255;28;20237;-81
2023/12/27 07:03:14;;;;;;;9.70;6.30;;;;;;;;;;5051659;28;20201;-81
2023/12/27 07:05:41;;;;;;;7.63;5.93;;;;;;;;;;5051172;28;20268;-81
2023/12/27 07:08:08;;;;;;;9.63;6.27;;;;;;;;;;5051317;28;20213;-81
2023/12/27 07:10:35;;;;;;;7.93;5.67;;;;;;;;;;5051200;28;20684;-81
2023/12/27 07:13:02;;;;;;;8.57;5.83;;;;;;;;;;5051157;28;20210;-80
2023/12/27 07:15:29;;;;;;;9.53;5.77;;;;;;;;;;5051071;28;20312;-82
2023/12/27 07:17:58;;;;;;;16.50;10.40;;;;;;;;;;5051528;28;20733;-83
2023/12/27 07:20:25;;;;;;;14.70;8.23;;;;;;;;;;5051501;28;20320;-82
2023/12/27 07:22:52;;;;;;;14.47;7.63;;;;;;;;;;5051355;28;20236;-82
2023/12/27 07:25:19;;;;;;;10.07;7.00;;;;;;;;;;5062984;28;20206;-82
2023/12/27 07:27:46;;;;;;;9.67;6.97;;;;;;;;;;5068829;28;20216;-82
2023/12/27 07:30:14;;;;;;;11.57;7.20;;;;;;;;;;5063311;28;20283;-82
2023/12/27 07:32:41;;;;;;;6.60;5.33;;;;;;;;;;5065813;28;20655;-83
2023/12/27 07:35:09;;;;;;;7.13;5.77;;;;;;;;;;5050007;28;20206;-82
2023/12/27 07:37:36;;;;;;;8.60;6.03;;;;;;;;;;5050750;28;20225;-83
2023/12/27 07:40:03;;;;;;;7.03;5.37;;;;;;;;;;5050202;28;20569;-81
2023/12/27 07:42:30;;;;;;;5.97;4.77;;;;;;;;;;5050650;28;20260;-83
2023/12/27 07:44:57;;;;;;;8.67;5.27;;;;;;;;;;5050492;28;20264;-83
2023/12/27 07:47:24;;;;;;;7.27;5.53;;;;;;;;;;5049934;28;20259;-83
2023/12/27 07:49:51;;;;;;;11.73;5.30;;;;;;;;;;5050403;28;20573;-83
2023/12/27 07:52:20;;;;;;;10.40;5.97;;;;;;;;;;5050178;28;20291;-83
2023/12/27 07:54:47;;;;;;;8.63;5.40;;;;;;;;;;5050376;28;20237;-83
2023/12/27 07:57:14;;;;;;;9.80;5.57;;;;;;;;;;5049796;28;20238;-84
2023/12/27 07:59:41;;;;;;;7.43;5.50;;;;;;;;;;5050361;28;20226;-83
2023/12/27 08:02:08;;;;;;;9.43;6.17;;;;;;;;;;5050181;28;20648;-82
2023/12/27 08:04:35;;;;;;;7.07;6.03;;;;;;;;;;5050534;28;20210;-83
2023/12/27 08:07:02;;;;;;;7.93;5.00;;;;;;;;;;5049814;28;20245;-83
2023/12/27 08:09:31;;;;;;;6.03;4.10;;;;;;;;;;5050387;28;20226;-83
2023/12/27 08:11:58;;;;;;;5.43;4.87;;;;;;;;;;5049970;28;20234;-83
2023/12/27 08:14:25;;;;;;;5.80;4.30;;;;;;;;;;5050174;28;20233;-83
2023/12/27 08:16:53;;;;;;;4.87;4.40;;;;;;;;;;5049631;28;20233;-82
2023/12/27 08:19:20;;;;;;;8.00;4.93;;;;;;;;;;5050167;28;20224;-82
2023/12/27 08:21:47;;;;;;;6.73;4.10;;;;;;;;;;5049616;28;20329;-82
2023/12/27 08:24:14;;;;;;;7.63;5.63;;;;;;;;;;5049937;28;20210;-82
2023/12/27 08:26:43;;;;;;;4.37;3.97;;;;;;;;;;5050329;28;20303;-82
2023/12/27 08:29:10;;;;;;;8.63;4.10;;;;;;;;;;5053780;28;20230;-82
2023/12/27 08:31:37;;;;;;;4.20;3.80;;;;;;;;;;5053363;28;20238;-82
2023/12/27 08:34:04;;;;;;;3.10;2.90;;;;;;;;;;5053061;28;20260;-82
2023/12/27 08:36:32;;;;;;;6.27;3.87;;;;;;;;;;5053035;28;20229;-82
2023/12/27 08:38:59;;;;;;;3.37;3.07;;;;;;;;;;5053555;28;20279;-82
2023/12/27 08:41:26;;;;;;;5.10;3.50;;;;;;;;;;5053487;28;20288;-82
2023/12/27 08:43:55;;;;;;;2.73;2.53;;;;;;;;;;5053406;28;20254;-82
2023/12/27 08:46:22;;;;;;;3.37;2.90;;;;;;;;;;5052468;28;20234;-82
2023/12/27 08:48:50;;;;;;;2.90;2.23;;;;;;;;;;5053046;28;20226;-81
2023/12/27 08:51:17;;;;;;;2.37;2.17;;;;;;;;;;5053148;28;20244;-82
2023/12/27 08:53:44;;;;;;;3.83;3.10;;;;;;;;;;5053537;28;20194;-83
2023/12/27 08:56:11;;;;;;;4.63;3.00;;;;;;;;;;5052716;28;20242;-83
2023/12/27 08:58:38;;;;;;;4.60;3.33;;;;;;;;;;5053313;28;20226;-83
2023/12/27 09:01:06;;;;;;;4.90;2.97;;;;;;;;;;5052952;28;20244;-83
2023/12/27 09:03:33;;;;;;;3.63;3.27;;;;;;;;;;5046459;28;20210;-83
2023/12/27 09:06:00;;;;;;;4.47;3.97;;;;;;;;;;5051573;28;20240;-83
2023/12/27 09:08:27;;;;;;;7.87;4.20;;;;;;;;;;5052969;28;20222;-83
2023/12/27 09:10:55;;;;;;;5.80;3.40;;;;;;;;;;5050910;28;20303;-83
2023/12/27 09:13:22;;;;;;;4.47;3.60;;;;;;;;;;5052688;28;20206;-83
2023/12/27 09:15:49;;;;;;;8.37;4.13;;;;;;;;;;5052107;28;20233;-83
2023/12/27 09:18:17;;;;;;;4.07;3.67;;;;;;;;;;5052608;28;20293;-83
2023/12/27 09:20:45;;;;;;;11.70;4.57;;;;;;;;;;5052120;28;20631;-83
2023/12/27 09:23:12;;;;;;;10.53;4.80;;;;;;;;;;5052101;28;20684;-83
2023/12/27 09:25:39;;;;;;;4.57;4.17;;;;;;;;;;5051927;28;20283;-83
2023/12/27 09:28:06;;;;;;;5.97;4.30;;;;;;;;;;5052199;28;20225;-83
2023/12/27 09:30:33;;;;;;;5.90;3.87;;;;;;;;;;5051911;28;20238;-83
2023/12/27 09:33:00;;;;;;;8.30;5.00;;;;;;;;;;5052383;28;20312;-83
2023/12/27 09:35:28;;;;;;;5.67;3.90;;;;;;;;;;5051536;28;20760;-83
2023/12/27 09:37:55;;;;;;;7.47;4.83;;;;;;;;;;5052083;28;20213;-84
2023/12/27 09:40:22;;;;;;;4.03;3.63;;;;;;;;;;5052238;28;20712;-84
2023/12/27 09:42:50;;;;;;;5.17;4.10;;;;;;;;;;5051781;28;20215;-84
2023/12/27 09:45:17;;;;;;;3.63;3.33;;;;;;;;;;5051333;28;20281;-84
2023/12/27 09:47:45;;;;;;;7.77;3.80;;;;;;;;;;5051411;28;20248;-84
2023/12/27 09:50:13;;;;;;;6.03;3.77;;;;;;;;;;5051780;28;20325;-84
2023/12/27 09:52:44;;;;;;;7.77;3.70;;;;;;;;;;5052353;28;20213;-84
2023/12/27 09:55:11;;;;;;;4.00;3.57;;;;;;;;;;5052090;28;20209;-84
2023/12/27 09:57:38;;;;;;;2.80;2.60;;;;;;;;;;5051829;28;20256;-76
2023/12/27 10:00:06;;;;;;;3.43;2.80;;;;;;;;;;5050828;28;20344;-76
2023/12/27 10:02:35;;;;;;;2.60;2.40;;;;;;;;;;5051668;28;20240;-76
2023/12/27 10:05:06;;;;;;;3.33;2.37;;;;;;;;;;5051551;28;20210;-75
2023/12/27 10:07:38;;;;;;;5.73;2.57;;;;;;;;;;5051515;28;20229;-75
2023/12/27 10:10:07;;;;;;;3.20;2.80;;;;;;;;;;5050840;28;20234;-75
2023/12/27 10:12:35;;;;;;;6.80;4.20;;;;;;;;;;5051355;28;20206;-75
2023/12/27 10:15:02;;;;;;;4.33;2.87;;;;;;;;;;5045997;28;20237;-75
2023/12/27 10:17:30;;;;;;;2.67;2.43;;;;;;;;;;5051147;28;20222;-75
2023/12/27 10:19:58;;;;;;;7.77;2.60;;;;;;;;;;5050940;28;20316;-75
2023/12/27 10:22:25;;;;;;;2.60;2.23;;;;;;;;;;5050308;28;20240;-75
2023/12/27 10:24:52;;;;;;;2.30;2.20;;;;;;;;;;5050669;28;20356;-75
2023/12/27 10:27:21;;;;;;;3.77;3.30;;;;;;;;;;5050493;28;20688;-75
2023/12/27 10:29:48;;;;;;;6.97;5.53;;;;;;;;;;5051096;28;20316;-75
2023/12/27 10:32:17;;;;;;;3.37;3.00;;;;;;;;;;5050416;28;20234;-75
2023/12/27 10:34:44;;;;;;;5.60;4.90;;;;;;;;;;5050537;28;20237;-75
2023/12/27 10:37:12;;;;;;;2.70;2.50;;;;;;;;;;5049845;28;20228;-75
2023/12/27 10:39:44;;;;;;;4.63;2.90;;;;;;;;;;5050950;28;20591;-75
2023/12/27 10:42:13;;;;;;;3.63;2.60;;;;;;;;;;5049941;28;20236;-75
2023/12/27 10:44:41;;;;;;;3.83;2.33;;;;;;;;;;5050760;28;20214;-75
2023/12/27 10:47:11;;;;;;;2.90;2.67;;;;;;;;;;5049463;28;20264;-75
2023/12/27 10:49:40;;;;;;;4.37;3.00;;;;;;;;;;5050325;28;20272;-75
2023/12/27 10:52:08;;;;;;;2.63;2.43;;;;;;;;;;5049978;28;20303;-75
2023/12/27 10:54:35;;;;;;;2.37;2.20;;;;;;;;;;5050615;28;20268;-75
2023/12/27 10:57:03;;;;;;;2.40;2.23;;;;;;;;;;5049656;28;20248;-75
2023/12/27 10:59:30;;;;;;;3.30;2.80;;;;;;;;;;5050353;28;20300;-75
2023/12/27 11:01:59;;;;;;;2.47;2.27;;;;;;;;;;5049784;28;20660;-75
2023/12/27 11:04:27;;;;;;;4.13;2.53;;;;;;;;;;5050501;28;20664;-76
2023/12/27 11:06:56;;;;;;;2.40;2.20;;;;;;;;;;5049589;28;20263;-76
2023/12/27 11:09:24;;;;;;;2.33;2.13;;;;;;;;;;5050290;28;20225;-76
2023/12/27 11:11:52;;;;;;;2.50;2.30;;;;;;;;;;5049674;28;20682;-75
2023/12/27 11:14:24;;;;;;;2.47;2.27;;;;;;;;;;5050140;28;20206;-75
2023/12/27 11:16:52;;;;;;;2.33;2.23;;;;;;;;;;5049486;28;20230;-75
2023/12/27 11:19:21;;;;;;;2.73;2.53;;;;;;;;;;5050084;28;20310;-75
2023/12/27 11:21:50;;;;;;;2.20;1.73;;;;;;;;;;5049694;28;20587;-75
2023/12/27 11:24:18;;;;;;;3.10;2.40;;;;;;;;;;5042503;28;20296;-76
2023/12/27 11:26:48;;;;;;;2.37;2.17;;;;;;;;;;5049463;28;20317;-75
2023/12/27 11:29:16;;;;;;;1.97;1.73;;;;;;;;;;5042446;28;20222;-75
2023/12/27 11:31:44;;;;;;;2.03;1.93;;;;;;;;;;5048809;28;20229;-75
2023/12/27 11:34:12;;;;;;;2.67;2.47;;;;;;;;;;5050067;28;20284;-74
2023/12/27 11:36:41;;;;;;;3.10;1.90;;;;;;;;;;5049585;28;20237;-75
2023/12/27 11:39:16;;;;;;;2.10;2.00;;;;;;;;;;5050055;28;20740;-76
2023/12/27 11:41:44;;;;;;;3.00;1.80;;;;;;;;;;5049875;28;20229;-76
2023/12/27 11:44:11;;;;;;;1.63;1.53;;;;;;;;;;5050055;28;20210;-76
2023/12/27 11:46:38;;;;;;;1.90;1.80;;;;;;;;;;5049438;28;20234;-76
2023/12/27 11:49:05;;;;;;;1.70;1.60;;;;;;;;;;5049543;28;20284;-76
2023/12/27 11:51:33;;;;;;;1.53;1.50;;;;;;;;;;5049863;28;20317;-76
2023/12/27 11:54:01;;;;;;;1.40;1.40;;;;;;;;;;5050086;28;20206;-76
2023/12/27 11:56:30;;;;;;;1.60;1.50;;;;;;;;;;5049203;28;20225;-76
2023/12/27 11:58:57;;;;;;;1.90;1.80;;;;;;;;;;5050159;28;20260;-76
2023/12/27 12:01:29;;;;;;;1.70;1.60;;;;;;;;;;5049808;28;20279;-76
2023/12/27 12:03:57;;;;;;;1.43;1.43;;;;;;;;;;5051142;28;20283;-76
2023/12/27 12:06:35;;;;;;;1.83;1.73;;;;;;;;;;5053134;28;20644;-76
2023/12/27 12:09:03;;;;;;;1.73;1.63;;;;;;;;;;5053595;28;20234;-76
2023/12/27 12:11:30;;;;;;;1.83;1.70;;;;;;;;;;5053512;28;20233;-76
2023/12/27 12:13:57;;;;;;;1.40;1.30;;;;;;;;;;5053308;28;20210;-75
2023/12/27 12:16:24;;;;;;;3.17;1.70;;;;;;;;;;5052959;28;20226;-76
2023/12/27 12:18:52;;;;;;;1.80;1.70;;;;;;;;;;5053590;28;20218;-75
2023/12/27 12:21:20;;;;;;;1.57;1.47;;;;;;;;;;5053560;28;20233;-76
2023/12/27 12:23:48;;;;;;;1.93;1.47;;;;;;;;;;5053643;28;20210;-76
2023/12/27 12:26:17;;;;;;;1.83;1.73;;;;;;;;;;5052574;28;20376;-76
2023/12/27 12:28:54;;;;;;;5.47;1.73;;;;;;;;;;5053406;28;20229;-76
2023/12/27 12:31:21;;;;;;;3.20;1.80;;;;;;;;;;5053158;28;20324;-76
2023/12/27 12:33:48;;;;;;;1.53;1.43;;;;;;;;;;5053535;28;20263;-76
2023/12/27 12:36:16;;;;;;;2.87;1.47;;;;;;;;;;5052304;28;20221;-76
2023/12/27 12:38:43;;;;;;;1.83;1.73;;;;;;;;;;5053194;28;20267;-75
2023/12/27 12:41:11;;;;;;;1.70;1.60;;;;;;;;;;5052757;28;20638;-75
2023/12/27 12:43:40;;;;;;;2.50;1.43;;;;;;;;;;5053242;28;20210;-75
2023/12/27 12:46:07;;;;;;;1.97;1.63;;;;;;;;;;5052278;28;20241;-75
2023/12/27 12:48:36;;;;;;;1.90;1.80;;;;;;;;;;5049438;28;20248;-75
2023/12/27 12:51:13;;;;;;;2.07;1.90;;;;;;;;;;5051270;28;20261;-75
2023/12/27 12:53:40;;;;;;;2.80;2.30;;;;;;;;;;5052888;28;20695;-75
2023/12/27 12:56:08;;;;;;;3.23;2.30;;;;;;;;;;5052101;28;20321;-76
2023/12/27 12:58:35;;;;;;;3.23;2.17;;;;;;;;;;5052768;28;20275;-75
2023/12/27 13:01:04;;;;;;;4.53;1.60;;;;;;;;;;5052021;28;20242;-75
2023/12/27 13:03:35;;;;;;;2.13;1.93;;;;;;;;;;5052729;28;20294;-75
2023/12/27 13:06:02;;;;;;;3.10;2.10;;;;;;;;;;5052068;28;20241;-75
2023/12/27 13:08:29;;;;;;;5.27;2.00;;;;;;;;;;5051905;28;20749;-75
2023/12/27 13:10:57;;;;;;;3.70;2.10;;;;;;;;;;5051412;28;20284;-76
2023/12/27 13:13:25;;;;;;;1.70;1.57;;;;;;;;;;5049319;28;20304;-75
2023/12/27 13:15:52;;;;;;;3.27;2.97;;;;;;;;;;5051536;28;20813;-75
2023/12/27 13:18:20;;;;;;;3.83;2.30;;;;;;;;;;5059863;28;20202;-75
2023/12/27 13:20:47;;;;;;;3.43;2.03;;;;;;;;;;5052295;28;20234;-75
2023/12/27 13:23:15;;;;;;;2.03;1.87;;;;;;;;;;5052167;28;20264;-75
2023/12/27 13:25:42;;;;;;;1.83;1.73;;;;;;;;;;5046179;28;20333;-76
2023/12/27 13:28:09;;;;;;;2.33;2.03;;;;;;;;;;5050562;28;20222;-77
2023/12/27 13:30:37;;;;;;;5.93;2.30;;;;;;;;;;5051977;28;20251;-76
2023/12/27 13:33:03;;;;;;;4.80;2.40;;;;;;;;;;5052111;28;20232;-76
2023/12/27 13:35:32;;;;;;;1.90;1.80;;;;;;;;;;5047799;28;22114;-76
2023/12/27 13:37:59;;;;;;;5.83;2.57;;;;;;;;;;5050620;28;20198;-76
2023/12/27 13:40:26;;;;;;;3.13;2.20;;;;;;;;;;5051009;28;20237;-76
2023/12/27 13:42:53;;;;;;;5.57;2.77;;;;;;;;;;5051659;28;20248;-76
2023/12/27 13:45:21;;;;;;;2.40;2.00;;;;;;;;;;5039889;28;20303;-77
2023/12/27 13:47:48;;;;;;;2.20;2.00;;;;;;;;;;5051299;28;20229;-77
2023/12/27 13:50:15;;;;;;;4.27;2.77;;;;;;;;;;5050675;28;20225;-77
2023/12/27 13:52:43;;;;;;;3.27;2.40;;;;;;;;;;5051993;28;20221;-74
2023/12/27 13:55:10;;;;;;;4.07;2.60;;;;;;;;;;5050871;28;20213;-75
2023/12/27 13:57:37;;;;;;;5.53;2.57;;;;;;;;;;5051332;28;20241;-74
2023/12/27 14:00:06;;;;;;;3.43;2.80;;;;;;;;;;5050665;28;20229;-75
2023/12/27 14:02:33;;;;;;;2.93;2.37;;;;;;;;;;5051706;28;20579;-74
2023/12/27 14:05:00;;;;;;;4.03;2.50;;;;;;;;;;5050090;28;20212;-74
2023/12/27 14:07:27;;;;;;;4.23;2.80;;;;;;;;;;5050937;28;20303;-74
2023/12/27 14:09:56;;;;;;;3.93;2.33;;;;;;;;;;5051457;28;20222;-74
2023/12/27 14:12:25;;;;;;;8.33;3.23;;;;;;;;;;5050510;28;20242;-75
2023/12/27 14:14:52;;;;;;;5.60;3.10;;;;;;;;;;5050495;28;20210;-74
2023/12/27 14:17:19;;;;;;;11.20;2.80;;;;;;;;;;5050469;28;20667;-74
2023/12/27 14:19:46;;;;;;;4.00;2.73;;;;;;;;;;5050690;28;20222;-74
2023/12/27 14:22:13;;;;;;;5.50;2.80;;;;;;;;;;5048190;28;20232;-74
2023/12/27 14:24:40;;;;;;;4.30;2.53;;;;;;;;;;5048021;28;20289;-75
2023/12/27 14:27:08;;;;;;;10.53;3.93;;;;;;;;;;5048623;28;20538;-74
2023/12/27 14:29:35;;;;;;;8.67;3.73;;;;;;;;;;5049684;28;20229;-74
2023/12/27 14:32:04;;;;;;;11.87;3.23;;;;;;;;;;5049531;28;20444;-74
2023/12/27 14:34:31;;;;;;;5.67;2.70;;;;;;;;;;5049705;28;20210;-74
2023/12/27 14:36:59;;;;;;;5.53;2.90;;;;;;;;;;5048748;28;20267;-75
2023/12/27 14:39:27;;;;;;;6.50;2.47;;;;;;;;;;5042466;28;20359;-75
2023/12/27 14:41:54;;;;;;;4.13;2.70;;;;;;;;;;5050724;28;20312;-75
2023/12/27 14:44:22;;;;;;;3.50;3.00;;;;;;;;;;5051420;28;20216;-74